Time;durP1;ratioP1;P1;durP2;ratioP2;P2;SDS_P1;SDS_P2;PMS_P1;PMS_P2;Temp;Humidity;BMP_temperature;BMP_pressure;BME280_temperature;BME280_humidity;BME280_pressure;Samples;Min_cycle;Max_cycle;Signal;HPM_P1;HPM_P2
2022/08/15 00:00:56;;;;;;;5.10;4.55;;;18.90;99.90;;;;;;5091884;28;20026;-78
2022/08/15 00:03:28;;;;;;;4.82;4.30;;;18.90;99.90;;;;;;5092660;28;20128;-78
2022/08/15 00:05:56;;;;;;;5.45;4.63;;;18.80;99.90;;;;;;5092512;28;20039;-77
2022/08/15 00:08:23;;;;;;;5.30;4.60;;;18.80;99.90;;;;;;5074444;28;20028;-77
2022/08/15 00:10:49;;;;;;;5.18;4.68;;;18.80;99.90;;;;;;5092412;28;20481;-77
2022/08/15 00:13:15;;;;;;;4.82;4.13;;;18.70;99.90;;;;;;5092521;28;20087;-77
2022/08/15 00:15:42;;;;;;;6.68;4.85;;;18.70;99.90;;;;;;5074406;28;20055;-78
2022/08/15 00:18:07;;;;;;;6.53;4.93;;;18.70;99.90;;;;;;5092338;28;20034;-77
2022/08/15 00:20:37;;;;;;;6.57;4.07;;;18.70;99.90;;;;;;5092251;28;20044;-76
2022/08/15 00:23:06;;;;;;;5.05;3.63;;;18.60;99.90;;;;;;5092370;28;20024;-74
2022/08/15 00:25:31;;;;;;;5.15;4.38;;;18.60;99.90;;;;;;5092182;28;20356;-77
2022/08/15 00:27:57;;;;;;;6.43;4.57;;;18.60;99.90;;;;;;5092234;28;20027;-74
2022/08/15 00:30:24;;;;;;;5.05;4.45;;;18.50;99.90;;;;;;5092297;28;20016;-76
2022/08/15 00:32:57;;;;;;;6.30;4.93;;;18.50;99.90;;;;;;5092474;28;20032;-77
2022/08/15 00:35:36;;;;;;;7.95;5.68;;;18.50;99.90;;;;;;5092344;28;20016;-77
2022/08/15 00:38:06;;;;;;;7.85;4.85;;;18.40;99.90;;;;;;5092194;28;20020;-75
2022/08/15 00:41:39;;;;;;;7.32;5.30;;;18.40;99.90;;;;;;5092148;28;20073;-76
2022/08/15 00:43:21;;;;;;;8.48;5.72;;;18.50;99.90;;;;;;5092120;28;20066;-77
2022/08/15 00:45:47;;;;;;;7.47;5.55;;;18.40;99.90;;;;;;5092270;28;20040;-77
2022/08/15 00:50:58;;;;;;;6.10;5.13;;;18.40;99.90;;;;;;5092132;28;20065;-77
2022/08/15 00:53:24;;;;;;;5.90;4.30;;;18.40;99.90;;;;;;5092264;28;20028;-76
2022/08/15 00:55:51;;;;;;;6.70;5.00;;;18.30;99.90;;;;;;5092172;28;20413;-76
2022/08/15 00:58:17;;;;;;;7.20;4.82;;;18.30;99.90;;;;;;5074137;28;20020;-73
2022/08/15 01:00:46;;;;;;;7.10;5.30;;;18.30;99.90;;;;;;5092183;28;20099;-78
2022/08/15 01:03:21;;;;;;;6.25;4.75;;;18.20;99.90;;;;;;5092027;28;20020;-78
2022/08/15 01:05:53;;;;;;;7.95;5.05;;;18.20;99.90;;;;;;5092198;28;20356;-76
2022/08/15 01:08:26;;;;;;;6.93;4.97;;;18.20;99.90;;;;;;5091942;28;20031;-77
2022/08/15 01:10:53;;;;;;;6.20;4.95;;;18.10;99.90;;;;;;5092300;28;20036;-77
2022/08/15 01:13:19;;;;;;;9.98;4.85;;;18.10;99.90;;;;;;5095600;28;20024;-78
2022/08/15 01:15:45;;;;;;;5.97;4.38;;;18.10;99.90;;;;;;5095591;28;20031;-77
2022/08/15 01:18:12;;;;;;;6.20;5.03;;;18.00;99.90;;;;;;5095813;28;20032;-76
2022/08/15 01:20:40;;;;;;;5.30;4.80;;;18.00;99.90;;;;;;5095712;28;20076;-77
2022/08/15 01:23:21;;;;;;;4.90;4.30;;;18.00;99.90;;;;;;5095899;28;20028;-75
2022/08/15 01:26:00;;;;;;;6.00;4.88;;;18.00;99.90;;;;;;5095555;28;20036;-76
2022/08/15 01:28:34;;;;;;;9.98;4.70;;;18.00;99.90;;;;;;5095178;28;20027;-77
2022/08/15 01:31:09;;;;;;;5.43;4.82;;;17.90;99.90;;;;;;5095609;28;20028;-78
2022/08/15 01:33:42;;;;;;;5.20;4.63;;;18.00;99.90;;;;;;5095288;28;20024;-75
2022/08/15 01:36:09;;;;;;;6.10;4.72;;;18.00;99.90;;;;;;5095525;28;20085;-77
2022/08/15 01:38:39;;;;;;;7.72;5.03;;;18.00;99.90;;;;;;5094943;28;20034;-76
2022/08/15 01:41:13;;;;;;;4.93;4.35;;;17.90;99.90;;;;;;5095193;28;20019;-77
2022/08/15 01:43:49;;;;;;;6.73;5.33;;;18.00;99.90;;;;;;5095131;28;20490;-77
2022/08/15 01:46:16;;;;;;;8.70;4.55;;;18.00;99.90;;;;;;5094953;28;20379;-76
2022/08/15 01:48:51;;;;;;;6.45;4.70;;;18.00;99.90;;;;;;5095135;28;20043;-77
2022/08/15 01:51:17;;;;;;;;;;;18.00;99.90;;;;;;5095546;28;20020;-77
2022/08/15 01:53:49;;;;;;;;;;;17.90;99.90;;;;;;5095941;28;19904;-78
2022/08/15 01:56:22;;;;;;;5.68;4.60;;;17.90;99.90;;;;;;5095354;28;19904;-76
2022/08/15 01:58:48;;;;;;;5.70;4.50;;;17.90;99.90;;;;;;5095154;28;20039;-77
2022/08/15 02:01:17;;;;;;;6.10;5.07;;;17.90;99.90;;;;;;5095015;28;20020;-78
2022/08/15 02:03:45;;;;;;;12.75;4.13;;;17.80;99.90;;;;;;5095287;28;20032;-77
2022/08/15 02:06:15;;;;;;;6.15;4.30;;;17.80;99.90;;;;;;5094938;28;20032;-78
2022/08/15 02:08:43;;;;;;;4.90;3.90;;;17.70;99.90;;;;;;5094766;28;20344;-78
2022/08/15 02:11:16;;;;;;;6.10;4.32;;;17.70;99.90;;;;;;5094838;28;20016;-78
2022/08/15 02:13:44;;;;;;;5.40;4.38;;;17.70;99.90;;;;;;5094870;28;20464;-76
2022/08/15 02:16:12;;;;;;;6.85;4.38;;;17.60;99.90;;;;;;5094699;28;20020;-78
2022/08/15 02:18:37;;;;;;;5.53;4.15;;;17.50;99.90;;;;;;5094638;28;20470;-78
2022/08/15 02:21:03;;;;;;;5.30;4.50;;;17.50;99.90;;;;;;5094835;28;20109;-78
2022/08/15 02:23:29;;;;;;;6.55;4.20;;;17.40;99.90;;;;;;5093770;28;20016;-77
2022/08/15 02:25:55;;;;;;;5.25;4.38;;;17.40;99.90;;;;;;5094389;28;20535;-77
2022/08/15 02:28:23;;;;;;;5.47;4.35;;;17.40;99.90;;;;;;5094159;28;20024;-76
2022/08/15 02:30:49;;;;;;;4.72;4.22;;;17.30;99.90;;;;;;5094254;28;20024;-77
2022/08/15 02:33:15;;;;;;;4.70;4.03;;;17.20;99.90;;;;;;5094168;28;20024;-76
2022/08/15 02:35:41;;;;;;;6.43;4.68;;;17.20;99.90;;;;;;5094443;28;20028;-75
2022/08/15 02:38:07;;;;;;;6.38;5.00;;;17.20;99.90;;;;;;5094260;28;20028;-76
2022/08/15 02:40:34;;;;;;;4.63;4.07;;;17.20;99.90;;;;;;5094208;28;20024;-75
2022/08/15 02:43:05;;;;;;;5.32;3.97;;;17.20;99.90;;;;;;5094157;28;20480;-78
2022/08/15 02:45:37;;;;;;;5.88;3.75;;;17.20;99.90;;;;;;5093909;28;20036;-75
2022/08/15 02:48:04;;;;;;;7.80;4.13;;;17.20;99.90;;;;;;5093751;28;20085;-78
2022/08/15 02:50:30;;;;;;;5.10;4.15;;;17.10;99.90;;;;;;5093999;28;20020;-75
2022/08/15 02:52:55;;;;;;;4.97;3.95;;;17.10;99.90;;;;;;5093927;28;20161;-77
2022/08/15 02:55:21;;;;;;;6.88;5.25;;;17.10;99.90;;;;;;5093981;28;20082;-77
2022/08/15 02:57:47;;;;;;;5.63;4.32;;;17.10;99.90;;;;;;5093935;28;20032;-77
2022/08/15 03:00:16;;;;;;;6.13;4.93;;;17.00;99.90;;;;;;5093919;28;20576;-77
2022/08/15 03:02:59;;;;;;;6.90;4.40;;;17.00;99.90;;;;;;5093620;28;20093;-77
2022/08/15 03:05:27;;;;;;;4.90;4.07;;;17.00;99.90;;;;;;5093641;28;20042;-79
2022/08/15 03:07:53;;;;;;;5.25;4.13;;;17.00;99.90;;;;;;5093416;28;20094;-77
2022/08/15 03:10:19;;;;;;;5.72;4.28;;;17.00;99.90;;;;;;5093631;28;20028;-77
2022/08/15 03:12:53;;;;;;;5.53;4.70;;;16.90;99.90;;;;;;5093685;28;20046;-76
2022/08/15 03:15:20;;;;;;;8.95;4.63;;;17.00;99.90;;;;;;5093405;28;20043;-76
2022/08/15 03:17:45;;;;;;;8.45;4.97;;;16.90;99.90;;;;;;5075275;28;20024;-77
2022/08/15 03:20:12;;;;;;;7.60;5.28;;;16.90;99.90;;;;;;5093200;28;20051;-76
2022/08/15 03:22:50;;;;;;;8.23;4.38;;;16.90;99.90;;;;;;5093223;28;20059;-77
2022/08/15 03:25:17;;;;;;;5.57;4.47;;;17.00;99.90;;;;;;5093151;28;20111;-77
2022/08/15 03:27:42;;;;;;;8.18;4.65;;;17.00;99.90;;;;;;5093068;28;20538;-76
2022/08/15 03:30:10;;;;;;;5.63;4.63;;;16.90;99.90;;;;;;5093152;28;20107;-77
2022/08/15 03:32:47;;;;;;;5.88;3.88;;;16.90;99.90;;;;;;5093086;28;20137;-77
2022/08/15 03:35:13;;;;;;;5.07;4.13;;;16.90;99.90;;;;;;5074878;28;20601;-77
2022/08/15 03:37:39;;;;;;;6.60;4.80;;;16.90;99.90;;;;;;5092721;28;20016;-75
2022/08/15 03:40:06;;;;;;;11.45;5.07;;;16.90;99.90;;;;;;5092848;28;20529;-76
2022/08/15 03:42:33;;;;;;;5.82;5.00;;;16.90;99.90;;;;;;5092532;28;20012;-78
2022/08/15 03:45:02;;;;;;;6.10;4.43;;;16.90;99.90;;;;;;5074523;28;20051;-75
2022/08/15 03:47:29;;;;;;;4.13;3.58;;;16.90;99.90;;;;;;5092673;28;20077;-76
2022/08/15 03:49:55;;;;;;;7.18;5.32;;;16.90;99.90;;;;;;5093254;28;20091;-77
2022/08/15 03:52:21;;;;;;;5.65;4.50;;;16.90;99.90;;;;;;5092663;28;20050;-76
2022/08/15 03:54:47;;;;;;;6.93;4.85;;;16.80;99.90;;;;;;5092690;28;20028;-76
2022/08/15 03:57:13;;;;;;;8.25;5.20;;;16.90;99.90;;;;;;5092604;28;20020;-74
2022/08/15 03:59:38;;;;;;;7.55;4.63;;;16.90;99.90;;;;;;5092555;28;20032;-76
2022/08/15 04:02:08;;;;;;;5.30;4.25;;;16.90;99.90;;;;;;5092886;28;20472;-77
2022/08/15 04:04:34;;;;;;;7.95;4.53;;;16.90;99.90;;;;;;5092650;28;20043;-77
2022/08/15 04:07:00;;;;;;;6.93;5.00;;;16.80;99.90;;;;;;5092429;28;20036;-76
2022/08/15 04:09:25;;;;;;;7.85;4.65;;;16.80;99.90;;;;;;5074567;28;20024;-75
2022/08/15 04:11:51;;;;;;;7.00;5.68;;;16.80;99.90;;;;;;5092522;28;20020;-77
2022/08/15 04:14:16;;;;;;;5.88;4.88;;;16.90;99.90;;;;;;5092704;28;20020;-77
2022/08/15 04:16:42;;;;;;;4.57;4.07;;;16.90;99.90;;;;;;5092342;28;20024;-77
2022/08/15 04:19:08;;;;;;;6.72;4.25;;;16.90;99.90;;;;;;5093099;28;20087;-78
2022/08/15 04:21:34;;;;;;;6.38;5.55;;;17.20;99.90;;;;;;5092783;28;20075;-77
2022/08/15 04:24:00;;;;;;;7.57;5.55;;;17.90;99.90;;;;;;5092448;28;20020;-78
2022/08/15 04:26:25;;;;;;;6.22;4.88;;;18.40;99.90;;;;;;5092150;28;20044;-76
2022/08/15 04:28:51;;;;;;;6.20;5.00;;;18.70;99.90;;;;;;5079712;28;20032;-78
2022/08/15 04:31:19;;;;;;;5.30;4.65;;;18.80;99.90;;;;;;5096251;28;20024;-78
2022/08/15 04:33:46;;;;;;;8.02;4.32;;;18.80;99.90;;;;;;5074522;28;20031;-79
2022/08/15 04:36:14;;;;;;;5.60;4.32;;;18.90;99.90;;;;;;5074516;28;20020;-78
2022/08/15 04:38:42;;;;;;;5.65;4.63;;;18.90;99.90;;;;;;5074622;28;20036;-77
2022/08/15 04:41:10;;;;;;;5.70;4.50;;;18.90;99.90;;;;;;5074733;28;20020;-78
2022/08/15 04:43:38;;;;;;;5.05;4.32;;;18.80;99.90;;;;;;5074670;28;20121;-79
2022/08/15 04:46:04;;;;;;;8.93;4.40;;;19.00;99.90;;;;;;5074873;28;20032;-79
2022/08/15 04:48:31;;;;;;;5.68;4.38;;;19.10;99.90;;;;;;5097084;28;20056;-79
2022/08/15 04:50:58;;;;;;;6.18;4.45;;;19.20;99.90;;;;;;5078577;28;20031;-79
2022/08/15 04:53:30;;;;;;;7.57;4.32;;;19.30;99.90;;;;;;5078185;28;20067;-80
2022/08/15 04:55:57;;;;;;;6.10;4.85;;;19.40;99.90;;;;;;5096229;28;20475;-78
2022/08/15 04:58:23;;;;;;;6.85;4.90;;;19.40;99.90;;;;;;5078549;28;20142;-79
2022/08/15 05:00:59;;;;;;;5.65;4.35;;;19.40;99.90;;;;;;5096648;28;20157;-79
2022/08/15 05:03:26;;;;;;;5.95;3.78;;;19.40;99.90;;;;;;5096707;28;20146;-78
2022/08/15 05:05:55;;;;;;;4.93;4.00;;;19.40;99.90;;;;;;5096472;28;20386;-78
2022/08/15 05:08:25;;;;;;;5.88;4.13;;;19.40;99.90;;;;;;5096450;28;20066;-79
2022/08/15 05:10:58;;;;;;;6.03;4.38;;;19.40;99.90;;;;;;5078350;28;20016;-75
2022/08/15 05:13:27;;;;;;;18.25;4.60;;;19.10;99.90;;;;;;5096197;28;20032;-77
2022/08/15 05:15:54;;;;;;;5.85;4.53;;;18.80;99.90;;;;;;5095694;28;20483;-77
2022/08/15 05:18:21;;;;;;;5.40;4.65;;;18.90;99.90;;;;;;5095726;28;20063;-77
2022/08/15 05:20:47;;;;;;;8.75;5.65;;;18.90;99.90;;;;;;5095775;28;20077;-77
2022/08/15 05:23:15;;;;;;;8.95;6.63;;;18.90;99.90;;;;;;5096231;28;20114;-77
2022/08/15 05:25:44;;;;;;;8.35;5.13;;;18.70;99.90;;;;;;5095818;28;20039;-76
2022/08/15 05:28:12;;;;;;;6.00;4.93;;;18.50;99.90;;;;;;5095720;28;20024;-76
2022/08/15 05:30:37;;;;;;;6.50;5.28;;;18.50;99.90;;;;;;5095882;28;20081;-75
2022/08/15 05:33:06;;;;;;;8.25;5.75;;;18.60;99.90;;;;;;5095877;28;20481;-77
2022/08/15 05:35:33;;;;;;;6.63;5.53;;;18.70;99.90;;;;;;5095788;28;20422;-79
2022/08/15 05:38:03;;;;;;;8.60;5.90;;;18.90;99.90;;;;;;5095816;28;20097;-79
2022/08/15 05:40:38;;;;;;;7.38;5.13;;;18.90;99.90;;;;;;5096071;28;20028;-77
2022/08/15 05:43:18;;;;;;;;;;;19.10;99.90;;;;;;5096200;28;20051;-76
2022/08/15 05:46:03;;;;;;;6.22;4.70;;;19.30;99.90;;;;;;5095892;28;19970;-77
2022/08/15 05:48:32;;;;;;;5.97;4.80;;;19.50;99.90;;;;;;5077680;28;20979;-77
2022/08/15 05:51:03;;;;;;;6.03;5.35;;;19.60;99.90;;;;;;5077673;28;20367;-76
2022/08/15 05:53:38;;;;;;;6.03;5.30;;;19.80;99.90;;;;;;5095727;28;20028;-77
2022/08/15 05:56:12;;;;;;;8.13;5.28;;;20.00;99.90;;;;;;5095733;28;20028;-79
2022/08/15 05:58:38;;;;;;;6.43;4.80;;;19.90;99.90;;;;;;5094070;28;20518;-77
2022/08/15 06:01:25;;;;;;;5.80;4.70;;;19.90;99.90;;;;;;5095587;28;20043;-76
2022/08/15 06:04:02;;;;;;;8.65;4.75;;;19.80;99.90;;;;;;5095552;28;20020;-78
2022/08/15 06:06:31;;;;;;;7.07;4.40;;;19.80;99.90;;;;;;5095225;28;20505;-79
2022/08/15 06:09:26;;;;;;;5.70;4.70;;;19.80;99.90;;;;;;5095304;28;20024;-80
2022/08/15 06:11:55;;;;;;;5.53;4.63;;;19.90;99.90;;;;;;5095405;28;20028;-74
2022/08/15 06:14:37;;;;;;;6.30;4.88;;;20.00;99.90;;;;;;5095503;28;20020;-79
2022/08/15 06:17:12;;;;;;;9.80;4.97;;;20.10;99.90;;;;;;5095201;28;20102;-75
2022/08/15 06:19:42;;;;;;;5.88;4.65;;;20.20;99.90;;;;;;5095137;28;20031;-78
2022/08/15 06:22:19;;;;;;;7.60;5.72;;;20.30;99.90;;;;;;5095306;28;20356;-79
2022/08/15 06:24:57;;;;;;;6.53;5.22;;;;;;;;;;5095153;28;20420;-76
2022/08/15 06:27:45;;;;;;;5.70;4.68;;;20.70;99.90;;;;;;5095025;28;20016;-77
2022/08/15 06:30:17;;;;;;;5.18;4.50;;;20.70;99.90;;;;;;5095176;28;20016;-74
2022/08/15 06:33:12;;;;;;;11.90;4.88;;;20.80;99.90;;;;;;5094770;28;20458;-76
2022/08/15 06:35:49;;;;;;;5.57;4.65;;;20.90;99.90;;;;;;5095229;28;20085;-76
2022/08/15 06:38:34;;;;;;;5.65;4.72;;;21.10;99.90;;;;;;5094854;28;20020;-78
2022/08/15 06:41:19;;;;;;;;;;;21.20;99.90;;;;;;5080976;28;20032;-74
2022/08/15 06:43:46;;;;;;;6.20;4.20;;;21.40;99.90;;;;;;5094958;28;20363;-77
2022/08/15 06:46:13;;;;;;;5.38;4.45;;;21.60;99.90;;;;;;5094800;28;20032;-80
2022/08/15 06:48:41;;;;;;;7.05;4.70;;;21.80;99.90;;;;;;5094584;28;20081;-75
2022/08/15 06:51:08;;;;;;;6.88;4.72;;;21.90;99.90;;;;;;5094742;28;20052;-80
2022/08/15 06:53:58;;;;;;;5.32;4.30;;;22.10;99.90;;;;;;5094542;28;20050;-78
2022/08/15 06:56:49;;;;;;;5.13;4.32;;;22.30;99.90;;;;;;5094575;28;20359;-76
2022/08/15 06:59:49;;;;;;;5.43;4.38;;;22.50;99.90;;;;;;5094450;28;20048;-76
2022/08/15 07:02:27;;;;;;;4.75;4.20;;;22.60;99.90;;;;;;5094436;28;20465;-73
2022/08/15 07:05:28;;;;;;;7.32;4.72;;;22.80;99.90;;;;;;5094256;28;20383;-77
2022/08/15 07:07:54;;;;;;;6.53;4.55;;;23.00;99.90;;;;;;5094242;28;20016;-79
2022/08/15 07:10:27;;;;;;;6.60;4.53;;;23.20;99.90;;;;;;5093487;28;20027;-80
2022/08/15 07:13:01;;;;;;;5.70;5.18;;;23.30;99.90;;;;;;5094272;28;20365;-78
2022/08/15 07:15:40;;;;;;;5.72;4.65;;;23.50;99.90;;;;;;5094838;28;20498;-80
2022/08/15 07:18:37;;;;;;;5.47;4.65;;;23.70;99.90;;;;;;5093919;28;20020;-78
2022/08/15 07:21:18;;;;;;;6.00;4.90;;;23.80;99.90;;;;;;5093259;28;20052;-77
2022/08/15 07:24:04;;;;;;;5.82;5.32;;;24.00;99.90;;;;;;5093532;28;20020;-80
2022/08/15 07:26:49;;;;;;;6.78;5.55;;;24.20;99.90;;;;;;5093671;28;20043;-79
2022/08/15 07:29:43;;;;;;;6.45;5.15;;;24.30;99.90;;;;;;5077986;28;20478;-80
2022/08/15 07:32:13;;;;;;;6.07;5.00;;;24.40;99.90;;;;;;5093901;28;20459;-78
2022/08/15 07:35:19;;;;;;;7.50;4.82;;;24.50;99.90;;;;;;5093675;28;20020;-79
2022/08/15 07:37:48;;;;;;;7.97;5.00;;;24.50;98.50;;;;;;5089317;28;20071;-78
2022/08/15 07:40:23;;;;;;;7.25;5.50;;;24.50;98.90;;;;;;5093705;28;20464;-80
2022/08/15 07:42:48;;;;;;;6.47;5.13;;;24.70;98.80;;;;;;5075730;28;20032;-78
2022/08/15 07:45:39;;;;;;;7.03;5.68;;;24.80;97.80;;;;;;5093689;28;20046;-79
2022/08/15 07:48:11;;;;;;;7.63;4.93;;;24.90;97.00;;;;;;5092680;28;20208;-79
2022/08/15 07:50:42;;;;;;;5.10;4.47;;;25.10;97.30;;;;;;5093344;28;20046;-78
2022/08/15 07:53:23;;;;;;;5.30;4.38;;;25.30;96.30;;;;;;5093267;28;20099;-78
2022/08/15 07:56:14;;;;;;;6.60;5.32;;;25.40;96.00;;;;;;5092988;28;20020;-79
2022/08/15 07:58:41;;;;;;;4.95;4.40;;;25.80;94.90;;;;;;5093239;28;20022;-79
2022/08/15 08:01:13;;;;;;;6.63;4.88;;;25.80;94.50;;;;;;5075156;28;20027;-78
2022/08/15 08:03:51;;;;;;;5.53;4.22;;;25.90;94.10;;;;;;5093132;28;20502;-78
2022/08/15 08:06:31;;;;;;;6.18;4.38;;;26.00;94.20;;;;;;5064947;28;20122;-79
2022/08/15 08:09:15;;;;;;;5.28;4.70;;;26.10;93.70;;;;;;5088234;28;20031;-79
2022/08/15 08:11:46;;;;;;;9.55;4.68;;;26.30;93.10;;;;;;5092926;28;20028;-79
2022/08/15 08:14:44;;;;;;;4.65;3.90;;;26.40;92.70;;;;;;5092923;28;20651;-80
2022/08/15 08:17:18;;;;;;;5.32;4.40;;;26.50;92.60;;;;;;5092833;28;20415;-81
2022/08/15 08:20:14;;;;;;;4.63;3.93;;;26.70;91.90;;;;;;5092610;28;20028;-79
2022/08/15 08:23:01;;;;;;;4.82;4.32;;;26.80;91.80;;;;;;5092291;28;20028;-77
2022/08/15 08:25:43;;;;;;;5.53;4.25;;;27.00;92.00;;;;;;5092862;28;20071;-79
2022/08/15 08:28:22;;;;;;;4.68;4.20;;;27.00;90.90;;;;;;5092679;28;20020;-78
2022/08/15 08:31:03;;;;;;;4.95;4.07;;;27.10;90.20;;;;;;5093460;28;20024;-78
2022/08/15 08:33:53;;;;;;;4.28;3.55;;;27.30;89.40;;;;;;5093103;28;20040;-79
2022/08/15 08:36:29;;;;;;;7.50;3.15;;;27.40;91.30;;;;;;5092938;28;20020;-78
2022/08/15 08:39:07;;;;;;;7.82;3.70;;;27.50;87.40;;;;;;5074834;28;20038;-78
2022/08/15 08:41:48;;;;;;;4.57;4.00;;;27.70;85.60;;;;;;5093292;28;20021;-76
2022/08/15 08:44:29;;;;;;;4.03;3.38;;;27.80;84.80;;;;;;5074476;28;20020;-80
2022/08/15 08:47:06;;;;;;;3.90;3.50;;;27.90;82.20;;;;;;5092629;28;20028;-79
2022/08/15 08:49:53;;;;;;;4.93;3.45;;;27.90;82.40;;;;;;5092646;28;20374;-78
2022/08/15 08:52:45;;;;;;;8.55;3.78;;;27.90;82.80;;;;;;5092727;28;20038;-79
2022/08/15 08:55:17;;;;;;;5.97;3.05;;;28.10;81.30;;;;;;5092634;28;20017;-79
2022/08/15 08:57:53;;;;;;;3.80;3.50;;;28.10;82.20;;;;;;5092804;28;20060;-79
2022/08/15 09:00:24;;;;;;;4.35;3.28;;;28.20;80.30;;;;;;5087448;28;20020;-78
2022/08/15 09:02:56;;;;;;;4.63;3.72;;;28.20;79.70;;;;;;5066738;28;20038;-77
2022/08/15 09:05:34;;;;;;;3.63;3.33;;;28.30;80.10;;;;;;5092061;28;20487;-77
2022/08/15 09:08:13;;;;;;;3.42;3.13;;;28.40;80.50;;;;;;5074072;28;20076;-78
2022/08/15 09:10:45;;;;;;;3.00;2.60;;;28.40;78.20;;;;;;5091809;28;20501;-78
2022/08/15 09:16:00;;;;;;;2.95;2.65;;;28.50;76.20;;;;;;5091881;28;20066;-80
2022/08/15 09:18:35;;;;;;;4.47;2.70;;;28.60;77.00;;;;;;5091618;28;20091;-79
2022/08/15 09:21:01;;;;;;;4.07;3.03;;;28.60;75.70;;;;;;5073732;28;20509;-78
2022/08/15 09:23:35;;;;;;;3.30;3.00;;;28.70;77.10;;;;;;5092135;28;20024;-80
2022/08/15 09:26:41;;;;;;;8.30;3.90;;;28.70;74.90;;;;;;5092447;28;20135;-80
2022/08/15 09:29:18;;;;;;;;;;;28.80;74.30;;;;;;5092196;28;20020;-80
2022/08/15 09:32:02;;;;;;;5.13;2.35;;;28.90;72.60;;;;;;5091444;28;19950;-78
2022/08/15 09:34:57;;;;;;;2.50;2.13;;;29.00;71.70;;;;;;5095315;28;20044;-79
2022/08/15 09:38:00;;;;;;;2.35;2.15;;;29.10;72.50;;;;;;5097478;28;20020;-78
2022/08/15 09:40:36;;;;;;;2.75;2.47;;;29.20;70.20;;;;;;5095722;28;20564;-78
2022/08/15 09:43:07;;;;;;;2.03;1.92;;;29.20;70.10;;;;;;5095436;28;20060;-77
2022/08/15 09:45:45;;;;;;;1.80;1.70;;;29.20;68.20;;;;;;5095157;28;20028;-78
2022/08/15 09:48:51;;;;;;;4.95;1.67;;;29.30;64.80;;;;;;5076821;28;20083;-80
2022/08/15 09:51:47;;;;;;;;;;;29.30;62.70;;;;;;5095737;28;20024;-77
2022/08/15 09:54:22;;;;;;;2.10;1.50;;;29.40;62.50;;;;;;5074429;28;19908;-77
2022/08/15 09:56:48;;;;;;;1.83;1.73;;;29.50;63.80;;;;;;5094579;28;20106;-78
2022/08/15 09:59:15;;;;;;;4.05;2.03;;;29.50;63.60;;;;;;5095169;28;20039;-76
2022/08/15 10:01:46;;;;;;;2.50;2.30;;;29.50;63.40;;;;;;5095221;28;20097;-80
2022/08/15 10:04:15;;;;;;;2.28;1.88;;;29.60;65.90;;;;;;5095127;28;20108;-77
2022/08/15 10:07:02;;;;;;;1.90;1.80;;;29.70;65.30;;;;;;5094758;28;20119;-80
2022/08/15 10:09:28;;;;;;;4.63;1.95;;;29.70;62.30;;;;;;5094778;28;20031;-78
2022/08/15 10:12:03;;;;;;;1.48;1.38;;;29.70;62.20;;;;;;5094887;28;20020;-80
2022/08/15 10:14:40;;;;;;;;;;;29.70;60.70;;;;;;5095050;28;20036;-78
2022/08/15 10:17:37;;;;;;;2.40;1.75;;;29.70;62.70;;;;;;5094615;28;19948;-79
2022/08/15 10:20:15;;;;;;;2.05;1.90;;;29.80;63.10;;;;;;5094619;28;20039;-77
2022/08/15 10:22:48;;;;;;;2.13;1.92;;;29.80;61.80;;;;;;5094920;28;20085;-77
2022/08/15 10:25:36;;;;;;;1.90;1.80;;;29.80;62.80;;;;;;5094683;28;20085;-75
2022/08/15 10:28:10;;;;;;;2.63;1.83;;;29.90;62.30;;;;;;5093859;28;20020;-76
2022/08/15 10:31:01;;;;;;;1.80;1.70;;;29.90;61.70;;;;;;5094428;28;20024;-79
2022/08/15 10:33:36;;;;;;;1.88;1.70;;;29.90;61.20;;;;;;5082030;28;20028;-79
2022/08/15 10:36:04;;;;;;;;;;;29.90;61.30;;;;;;5094573;28;20094;-80
2022/08/15 10:38:32;;;;;;;3.65;1.63;;;29.90;59.20;;;;;;5094137;28;19911;-78
2022/08/15 10:41:37;;;;;;;1.73;1.40;;;29.90;58.10;;;;;;5093993;28;20063;-77
2022/08/15 10:44:42;;;;;;;1.20;1.10;;;30.00;56.20;;;;;;5093369;28;20021;-78
2022/08/15 10:47:23;;;;;;;2.22;0.98;;;30.10;53.90;;;;;;5093751;28;20386;-76
2022/08/15 10:50:01;;;;;;;1.02;1.02;;;30.20;51.90;;;;;;5094090;28;20016;-79
2022/08/15 10:52:39;;;;;;;1.98;1.25;;;30.30;54.50;;;;;;5093971;28;20035;-77
2022/08/15 10:55:20;;;;;;;1.50;1.40;;;30.30;55.00;;;;;;5093940;28;20035;-79
2022/08/15 10:57:50;;;;;;;1.27;1.17;;;30.30;55.20;;;;;;5093812;28;20020;-76
2022/08/15 11:00:45;;;;;;;1.30;1.20;;;30.40;57.20;;;;;;5093753;28;20020;-79
2022/08/15 11:03:20;;;;;;;2.00;1.45;;;30.50;56.20;;;;;;5093869;28;20356;-79
2022/08/15 11:06:06;;;;;;;1.33;1.23;;;30.60;56.90;;;;;;5093452;28;20139;-77
2022/08/15 11:08:34;;;;;;;1.48;1.38;;;30.70;55.70;;;;;;5093445;28;20102;-78
2022/08/15 11:11:07;;;;;;;1.67;1.50;;;30.80;55.30;;;;;;5093484;28;20444;-79
2022/08/15 11:13:35;;;;;;;4.20;1.48;;;30.80;55.90;;;;;;5093450;28;20032;-78
2022/08/15 11:16:14;;;;;;;4.03;1.30;;;30.80;55.00;;;;;;5093504;28;20069;-77
2022/08/15 11:19:00;;;;;;;1.52;1.40;;;30.90;54.70;;;;;;5093414;28;20047;-78
2022/08/15 11:21:42;;;;;;;2.75;1.23;;;31.00;54.50;;;;;;5093263;28;20758;-79
2022/08/15 11:24:09;;;;;;;1.60;1.40;;;30.90;53.50;;;;;;5093328;28;20051;-79
2022/08/15 11:26:41;;;;;;;1.40;1.30;;;31.00;55.90;;;;;;5093274;28;20028;-78
2022/08/15 11:29:23;;;;;;;1.50;1.40;;;31.00;56.50;;;;;;5093391;28;20038;-78
2022/08/15 11:31:58;;;;;;;2.15;1.70;;;30.90;54.00;;;;;;5093348;28;20395;-82
2022/08/15 11:34:29;;;;;;;1.38;1.27;;;30.90;55.30;;;;;;5092942;28;20016;-76
2022/08/15 11:37:01;;;;;;;2.47;1.60;;;30.70;55.90;;;;;;5093096;28;20031;-79
2022/08/15 11:39:29;;;;;;;1.80;1.70;;;30.70;57.50;;;;;;5093099;28;20441;-79
2022/08/15 11:42:00;;;;;;;1.58;1.48;;;30.60;57.90;;;;;;5093282;28;20081;-80
2022/08/15 11:44:44;;;;;;;2.42;1.70;;;30.60;58.10;;;;;;5093623;28;20026;-80
2022/08/15 11:47:15;;;;;;;2.00;1.60;;;30.50;58.20;;;;;;5093416;28;20403;-78
2022/08/15 11:49:46;;;;;;;1.55;1.45;;;30.40;58.20;;;;;;5093313;28;20020;-78
2022/08/15 11:52:12;;;;;;;1.50;1.40;;;30.40;56.20;;;;;;5092880;28;20095;-76
2022/08/15 11:54:38;;;;;;;1.63;1.52;;;30.60;57.50;;;;;;5092847;28;20103;-76
2022/08/15 11:57:06;;;;;;;1.52;1.42;;;30.70;58.80;;;;;;5092497;28;20555;-75
2022/08/15 11:59:37;;;;;;;1.10;1.10;;;30.90;57.00;;;;;;5092718;28;20089;-77
2022/08/15 12:02:18;;;;;;;2.67;1.50;;;31.10;57.10;;;;;;5092658;28;20035;-79
2022/08/15 12:04:46;;;;;;;2.15;1.40;;;31.30;57.70;;;;;;5092929;28;20648;-78
2022/08/15 12:07:15;;;;;;;1.73;1.52;;;31.40;56.00;;;;;;5074433;28;20040;-77
2022/08/15 12:10:08;;;;;;;1.88;1.17;;;31.50;56.00;;;;;;5092889;28;20379;-80
2022/08/15 12:12:37;;;;;;;1.33;0.95;;;31.70;54.80;;;;;;5074983;28;20044;-77
2022/08/15 12:15:32;;;;;;;1.45;1.30;;;31.80;52.90;;;;;;5073318;28;20065;-78
2022/08/15 12:18:07;;;;;;;1.20;1.20;;;31.80;53.60;;;;;;5082070;28;20048;-78
2022/08/15 12:20:59;;;;;;;3.08;1.20;;;31.90;53.50;;;;;;5092470;28;20380;-79
2022/08/15 12:23:35;;;;;;;1.38;1.30;;;31.80;51.50;;;;;;5078583;28;20057;-78
2022/08/15 12:26:08;;;;;;;1.10;1.00;;;31.60;51.80;;;;;;5092382;28;20081;-78
2022/08/15 12:28:37;;;;;;;2.20;1.20;;;31.60;50.30;;;;;;5074222;28;20469;-78
2022/08/15 12:31:21;;;;;;;1.40;1.30;;;31.70;51.00;;;;;;5092485;28;20028;-79
2022/08/15 12:33:49;;;;;;;1.15;1.13;;;31.70;50.00;;;;;;5092589;28;20017;-78
2022/08/15 12:36:15;;;;;;;1.33;1.10;;;31.80;51.50;;;;;;5092422;28;20031;-78
2022/08/15 12:38:40;;;;;;;1.25;1.15;;;31.90;51.70;;;;;;5092942;28;20032;-78
2022/08/15 12:41:08;;;;;;;1.45;1.35;;;32.00;52.20;;;;;;5093092;28;20031;-79
2022/08/15 12:43:35;;;;;;;1.85;1.13;;;31.90;52.40;;;;;;5092905;28;20013;-78
2022/08/15 12:46:02;;;;;;;1.40;1.30;;;31.90;53.20;;;;;;5074789;28;20097;-78
2022/08/15 12:48:32;;;;;;;1.48;1.25;;;31.90;52.10;;;;;;5092559;28;20430;-78
2022/08/15 12:50:58;;;;;;;1.10;1.00;;;31.90;50.80;;;;;;5092670;28;20028;-79
2022/08/15 12:53:24;;;;;;;1.40;1.30;;;31.90;51.10;;;;;;5092506;28;20072;-75
2022/08/15 12:55:50;;;;;;;1.17;1.08;;;31.90;50.40;;;;;;5092534;28;20029;-78
2022/08/15 12:58:18;;;;;;;1.10;1.08;;;31.90;49.30;;;;;;5092615;28;20560;-78
2022/08/15 13:00:47;;;;;;;1.08;0.98;;;31.90;49.40;;;;;;5092470;28;20028;-78
2022/08/15 13:03:19;;;;;;;1.60;1.20;;;31.90;49.80;;;;;;5092568;28;20031;-78
2022/08/15 13:05:49;;;;;;;1.17;0.80;;;31.90;49.30;;;;;;5092728;28;20039;-73
2022/08/15 13:08:15;;;;;;;4.90;0.95;;;31.90;49.40;;;;;;5094694;28;20027;-78
2022/08/15 13:10:40;;;;;;;0.93;0.93;;;32.00;49.40;;;;;;5078993;28;20020;-78
2022/08/15 13:13:06;;;;;;;1.15;1.02;;;32.00;48.40;;;;;;5096631;28;20020;-77
2022/08/15 13:15:32;;;;;;;0.85;0.85;;;31.90;49.00;;;;;;5098102;28;20059;-77
2022/08/15 13:17:59;;;;;;;1.25;1.08;;;32.00;48.70;;;;;;5098041;28;20355;-78
2022/08/15 13:25:55;;;;;;;0.90;0.90;;;32.20;47.90;;;;;;5097702;28;19979;-77
2022/08/15 13:28:21;;;;;;;1.52;1.35;;;32.20;47.60;;;;;;5078683;28;20020;-78
2022/08/15 13:30:49;;;;;;;1.05;1.05;;;32.20;47.00;;;;;;5080033;28;20111;-77